Time;durP1;ratioP1;P1;durP2;ratioP2;P2;SDS_P1;SDS_P2;PMS_P1;PMS_P2;Temp;Humidity;BMP_temperature;BMP_pressure;BME280_temperature;BME280_humidity;BME280_pressure;Samples;Min_cycle;Max_cycle;Signal;HPM_P1;HPM_P2
2022/03/18 00:00:51;;;;;;;6.75;1.73;;;17.10;42.90;16.30;103430.00;;;;5073853;28;20040;-64
2022/03/18 00:03:37;;;;;;;3.83;1.33;;;17.10;42.90;16.30;103425.00;;;;5065025;28;20036;-64
2022/03/18 00:06:23;;;;;;;2.05;1.35;;;17.10;42.90;16.30;103430.00;;;;5056230;28;20049;-64
2022/03/18 00:09:09;;;;;;;3.30;1.58;;;17.10;42.80;16.30;103428.00;;;;5042681;28;20040;-64
2022/03/18 00:11:55;;;;;;;3.17;1.55;;;17.10;42.90;16.20;103427.00;;;;5059296;28;20028;-64
2022/03/18 00:14:41;;;;;;;3.22;1.52;;;17.10;42.90;16.20;103431.00;;;;5051202;28;20033;-64
2022/03/18 00:17:27;;;;;;;3.85;1.52;;;17.10;43.60;16.20;103433.00;;;;5065504;28;20033;-64
2022/03/18 00:20:13;;;;;;;3.90;2.05;;;17.10;42.90;16.20;103444.00;;;;5055995;28;20513;-64
2022/03/18 00:22:59;;;;;;;4.40;1.73;;;17.10;42.90;16.20;103449.00;;;;5052106;28;20474;-64
2022/03/18 00:25:45;;;;;;;3.67;1.67;;;17.10;42.90;16.20;103442.00;;;;5050222;28;20028;-64
2022/03/18 00:28:31;;;;;;;3.85;1.75;;;17.10;42.90;16.20;103447.00;;;;5041157;28;20505;-64
2022/03/18 00:31:17;;;;;;;3.72;1.73;;;17.00;42.80;16.20;103444.00;;;;5063661;28;20029;-64
2022/03/18 00:34:04;;;;;;;3.97;2.13;;;17.00;42.80;16.20;103451.00;;;;5056117;28;20084;-64
2022/03/18 00:36:50;;;;;;;1.88;1.25;;;17.00;42.80;16.20;103443.00;;;;5055144;28;20664;-64
2022/03/18 00:39:36;;;;;;;3.63;1.75;;;17.00;42.80;16.20;103445.00;;;;5061460;28;20044;-64
2022/03/18 00:42:22;;;;;;;3.15;1.75;;;17.00;42.80;16.20;103442.00;;;;5059045;28;20051;-64
2022/03/18 00:45:09;;;;;;;3.55;1.90;;;17.00;42.80;16.20;103437.00;;;;5057378;28;20036;-64
2022/03/18 00:54:04;;;;;;;4.72;1.98;;;17.00;42.80;16.10;103464.00;;;;5032792;28;20564;-64
2022/03/18 00:56:50;;;;;;;4.35;2.55;;;17.00;42.80;16.10;103459.00;;;;5051083;28;20048;-64
2022/03/18 00:59:36;;;;;;;3.28;1.95;;;17.00;42.80;16.10;103467.00;;;;5059213;28;20538;-64
2022/03/18 01:02:22;;;;;;;4.85;2.00;;;17.00;42.80;16.10;103472.00;;;;5034973;28;20045;-64
2022/03/18 01:05:08;;;;;;;3.08;1.77;;;17.00;42.80;16.10;103474.00;;;;5062308;28;20547;-64
2022/03/18 01:07:54;;;;;;;3.28;1.88;;;17.00;42.80;16.10;103475.00;;;;5063145;28;20083;-64
2022/03/18 01:10:41;;;;;;;3.20;2.22;;;17.00;42.70;16.10;103459.00;;;;5059028;28;20037;-64
2022/03/18 01:13:27;;;;;;;4.25;2.10;;;17.00;42.80;16.10;103464.00;;;;5065827;28;20170;-64
2022/03/18 01:16:13;;;;;;;3.53;2.13;;;17.00;42.80;16.10;103472.00;;;;5042512;28;20200;-64
2022/03/18 01:18:59;;;;;;;3.95;1.80;;;17.00;42.70;16.10;103462.00;;;;5053728;28;20079;-64
2022/03/18 01:21:45;;;;;;;3.30;2.22;;;16.90;42.70;16.10;103474.00;;;;5060980;28;20049;-64
2022/03/18 01:24:31;;;;;;;2.83;1.98;;;16.90;42.70;16.10;103481.00;;;;5055093;28;20102;-64
2022/03/18 01:27:18;;;;;;;5.50;2.17;;;16.90;42.70;16.10;103490.00;;;;5067449;28;20474;-64
2022/03/18 01:30:04;;;;;;;4.65;1.95;;;16.90;42.70;16.10;103481.00;;;;5057455;28;20037;-64
2022/03/18 01:32:50;;;;;;;3.67;2.67;;;16.90;42.70;16.10;103490.00;;;;5042168;28;20049;-64
2022/03/18 01:35:37;;;;;;;3.65;2.05;;;16.90;42.70;16.10;103502.00;;;;5067134;28;20118;-64
2022/03/18 01:38:23;;;;;;;3.65;2.15;;;16.90;42.70;16.00;103498.00;;;;5048650;28;20064;-64
2022/03/18 01:41:09;;;;;;;2.83;2.00;;;16.90;42.70;16.00;103501.00;;;;5063088;28;20041;-64
2022/03/18 01:43:55;;;;;;;4.57;2.22;;;16.90;43.40;16.00;103501.00;;;;5056974;28;20483;-64
2022/03/18 01:46:41;;;;;;;3.97;2.15;;;16.90;42.70;16.00;103502.00;;;;5038929;28;20040;-64
2022/03/18 01:49:27;;;;;;;3.85;2.25;;;16.90;43.40;16.00;103500.00;;;;5064172;28;20045;-65
2022/03/18 01:52:14;;;;;;;3.63;1.70;;;16.90;42.60;16.00;103508.00;;;;5060251;28;20040;-64
2022/03/18 01:55:00;;;;;;;2.83;2.10;;;16.80;42.60;16.00;103509.00;;;;5046921;28;20087;-64
2022/03/18 01:57:46;;;;;;;3.58;2.08;;;16.90;42.60;16.00;103510.00;;;;5056092;28;20040;-64
2022/03/18 02:00:32;;;;;;;4.15;2.50;;;16.80;42.60;16.00;103518.00;;;;5060248;28;20041;-64
2022/03/18 02:03:18;;;;;;;4.35;2.28;;;16.90;42.60;16.00;103533.00;;;;5057675;28;20056;-64
2022/03/18 02:06:05;;;;;;;3.88;2.28;;;16.80;42.60;16.00;103533.00;;;;5060067;28;20029;-64
2022/03/18 02:08:51;;;;;;;3.70;2.30;;;16.90;42.60;16.00;103528.00;;;;5046194;28;20122;-64
2022/03/18 02:11:38;;;;;;;4.50;2.28;;;16.80;42.60;16.00;103522.00;;;;5043137;28;20033;-64
2022/03/18 02:14:34;;;;;;;5.35;2.38;;;16.80;42.60;16.00;103511.00;;;;5050537;28;20128;-64
2022/03/18 02:17:20;;;;;;;4.07;2.22;;;16.80;42.50;15.90;103522.00;;;;5053007;28;20047;-64
2022/03/18 02:20:07;;;;;;;4.57;2.20;;;16.80;42.50;15.90;103526.00;;;;5056504;28;20733;-64
2022/03/18 02:22:53;;;;;;;5.32;2.33;;;16.80;42.60;15.90;103520.00;;;;5058445;28;20071;-64
2022/03/18 02:25:39;;;;;;;5.47;2.30;;;16.80;42.50;15.90;103531.00;;;;5057680;28;20478;-64
2022/03/18 02:28:26;;;;;;;4.80;2.00;;;16.80;42.50;15.90;103538.00;;;;5063677;28;20057;-64
2022/03/18 02:31:12;;;;;;;3.15;2.05;;;16.80;42.50;15.90;103541.00;;;;5054093;28;20072;-64
2022/03/18 02:33:58;;;;;;;3.72;2.42;;;16.80;42.50;15.90;103539.00;;;;5060812;28;20028;-64
2022/03/18 02:36:44;;;;;;;3.40;2.40;;;16.80;43.20;15.90;103549.00;;;;5055930;28;20541;-64
2022/03/18 02:39:30;;;;;;;4.25;2.13;;;16.80;42.60;15.90;103539.00;;;;5055893;28;20051;-64
2022/03/18 02:42:16;;;;;;;4.65;1.98;;;16.70;42.50;15.90;103549.00;;;;5053307;28;20044;-64
2022/03/18 02:45:03;;;;;;;3.55;2.00;;;16.80;42.50;15.90;103542.00;;;;5061351;28;20053;-64
2022/03/18 02:47:49;;;;;;;3.00;2.17;;;16.70;43.20;15.90;103545.00;;;;5042443;28;20034;-64
2022/03/18 02:50:35;;;;;;;3.65;1.90;;;16.70;42.40;15.90;103554.00;;;;5055997;28;20036;-64
2022/03/18 02:53:22;;;;;;;3.33;2.25;;;16.70;42.40;15.90;103554.00;;;;5055762;28;20040;-64
2022/03/18 02:56:08;;;;;;;3.47;2.03;;;16.70;42.40;15.90;103556.00;;;;5039141;28;20037;-64
2022/03/18 02:58:54;;;;;;;2.58;1.95;;;16.70;42.40;15.80;103561.00;;;;5055577;28;20068;-64
2022/03/18 03:01:40;;;;;;;4.05;1.85;;;16.70;42.40;15.80;103564.00;;;;5053274;28;20161;-64
2022/03/18 03:04:26;;;;;;;3.30;1.92;;;16.70;42.40;15.80;103554.00;;;;5043455;28;20052;-64
2022/03/18 03:10:17;;;;;;;3.50;1.58;;;16.70;42.40;15.80;103563.00;;;;5058207;28;20025;-64
2022/03/18 03:13:11;;;;;;;4.30;2.20;;;16.70;42.50;15.80;103569.00;;;;5055746;28;20525;-64
2022/03/18 03:15:57;;;;;;;2.88;1.90;;;16.70;42.40;15.80;103564.00;;;;5040021;28;20071;-63
2022/03/18 03:18:43;;;;;;;3.50;1.80;;;16.70;42.40;15.80;103558.00;;;;5050425;28;20076;-64
2022/03/18 03:21:30;;;;;;;3.92;2.05;;;16.70;42.40;15.80;103560.00;;;;5065203;28;20040;-64
2022/03/18 03:24:16;;;;;;;2.72;1.60;;;16.70;42.40;15.80;103550.00;;;;5053613;28;20098;-64
2022/03/18 03:27:02;;;;;;;4.60;1.58;;;16.60;42.30;15.80;103563.00;;;;5057350;28;20048;-64
2022/03/18 03:29:48;;;;;;;3.95;1.63;;;16.60;42.40;15.80;103566.00;;;;5063837;28;20098;-64
2022/03/18 03:32:35;;;;;;;3.15;1.70;;;16.60;42.40;15.80;103578.00;;;;5058856;28;20040;-64
2022/03/18 03:35:21;;;;;;;2.95;1.73;;;16.60;42.30;15.70;103583.00;;;;5080025;28;20043;-64
2022/03/18 03:38:09;;;;;;;4.03;1.90;;;16.60;42.30;15.80;103595.00;;;;5042790;28;20539;-64
2022/03/18 03:40:55;;;;;;;2.35;1.40;;;16.60;42.30;15.70;103580.00;;;;5044980;28;20540;-64
2022/03/18 03:43:42;;;;;;;3.15;1.80;;;16.60;42.30;15.70;103589.00;;;;5054807;28;20127;-64
2022/03/18 03:46:28;;;;;;;4.88;1.70;;;16.60;42.30;15.70;103602.00;;;;5060034;28;20482;-64
2022/03/18 03:49:14;;;;;;;4.00;1.90;;;16.60;42.30;15.70;103604.00;;;;5061468;28;20037;-63
2022/03/18 03:52:00;;;;;;;3.90;1.80;;;16.60;42.30;15.70;103603.00;;;;5052193;28;20033;-63
2022/03/18 03:54:47;;;;;;;2.17;1.55;;;16.60;42.30;15.70;103610.00;;;;5055964;28;20078;-64
2022/03/18 03:57:33;;;;;;;3.13;1.73;;;16.60;42.30;15.70;103617.00;;;;5060771;28;20041;-64
2022/03/18 04:00:19;;;;;;;3.75;1.80;;;16.60;42.30;15.70;103617.00;;;;5061435;28;20517;-64
2022/03/18 04:03:05;;;;;;;2.75;1.70;;;16.60;42.30;15.70;103626.00;;;;5053497;28;20481;-64
2022/03/18 04:05:51;;;;;;;2.67;1.50;;;16.60;42.20;15.70;103621.00;;;;5039553;28;20331;-64
2022/03/18 04:08:37;;;;;;;3.13;1.70;;;16.60;42.30;15.70;103621.00;;;;5051161;28;20497;-64
2022/03/18 04:11:23;;;;;;;3.05;1.70;;;16.60;42.20;15.70;103625.00;;;;5066434;28;20049;-64
2022/03/18 04:14:09;;;;;;;5.93;1.77;;;16.50;42.10;15.70;103629.00;;;;5054156;28;20033;-64
2022/03/18 04:16:55;;;;;;;3.03;1.60;;;16.60;42.30;15.70;103634.00;;;;5058717;28;20040;-64
2022/03/18 04:19:41;;;;;;;3.03;1.95;;;16.50;42.20;15.70;103642.00;;;;5058533;28;20040;-64
2022/03/18 04:22:27;;;;;;;2.35;1.73;;;16.60;42.20;15.70;103636.00;;;;5061058;28;20494;-64
2022/03/18 04:25:13;;;;;;;2.47;1.50;;;16.50;42.10;15.60;103644.00;;;;5060634;28;20040;-64
2022/03/18 04:27:59;;;;;;;2.35;1.65;;;16.50;42.10;15.60;103645.00;;;;5043974;28;20414;-64
2022/03/18 04:30:45;;;;;;;3.03;2.00;;;16.50;42.10;15.60;103651.00;;;;5059992;28;20044;-64
2022/03/18 04:33:31;;;;;;;3.25;1.67;;;16.50;42.10;15.60;103649.00;;;;5063899;28;20036;-64
2022/03/18 04:36:17;;;;;;;2.72;2.00;;;16.50;42.10;15.60;103658.00;;;;5067625;28;20029;-64
2022/03/18 04:39:03;;;;;;;2.55;1.77;;;16.50;42.10;15.60;103658.00;;;;5058169;28;20037;-64
2022/03/18 04:41:49;;;;;;;2.38;1.45;;;16.50;42.00;15.60;103659.00;;;;5066075;28;20044;-64
2022/03/18 04:44:36;;;;;;;2.38;1.70;;;16.50;42.70;15.60;103665.00;;;;5063480;28;20040;-64
2022/03/18 04:47:22;;;;;;;2.17;1.80;;;16.50;42.10;15.60;103677.00;;;;5047884;28;20041;-64
2022/03/18 04:50:08;;;;;;;3.50;2.10;;;16.50;42.10;15.60;103670.00;;;;5066375;28;20040;-64
2022/03/18 04:52:56;;;;;;;2.55;1.98;;;16.50;42.00;15.60;103668.00;;;;5064338;28;20469;-64
2022/03/18 04:55:42;;;;;;;3.35;1.80;;;16.50;42.10;15.60;103667.00;;;;5080841;28;20033;-64
2022/03/18 04:58:28;;;;;;;2.75;1.58;;;16.50;42.00;15.60;103673.00;;;;5065267;28;20406;-64
2022/03/18 05:01:14;;;;;;;3.88;1.90;;;16.50;42.00;15.60;103681.00;;;;5063431;28;20474;-64
2022/03/18 05:04:00;;;;;;;3.58;1.70;;;16.50;42.00;15.60;103679.00;;;;5061519;28;20036;-64
2022/03/18 05:06:47;;;;;;;2.63;1.65;;;16.50;42.00;15.60;103683.00;;;;5064338;28;20067;-64
2022/03/18 05:09:33;;;;;;;2.20;1.50;;;16.50;42.00;15.60;103690.00;;;;5063127;28;20048;-64
2022/03/18 05:12:19;;;;;;;2.30;1.80;;;16.50;42.00;15.50;103695.00;;;;5066172;28;20047;-64
2022/03/18 05:15:07;;;;;;;3.58;1.95;;;16.40;42.00;15.50;103695.00;;;;5060316;28;20040;-64
2022/03/18 05:17:54;;;;;;;4.30;1.65;;;16.40;41.90;15.50;103704.00;;;;5059054;28;20056;-64
2022/03/18 05:20:40;;;;;;;3.70;1.98;;;16.40;42.00;15.50;103711.00;;;;5053206;28;20041;-64
2022/03/18 05:23:26;;;;;;;4.28;2.13;;;16.40;41.90;15.50;103720.00;;;;5062303;28;20374;-64
2022/03/18 05:26:13;;;;;;;2.83;1.80;;;16.40;41.90;15.50;103727.00;;;;5063595;28;20033;-63
2022/03/18 05:28:59;;;;;;;3.65;1.70;;;16.40;41.90;15.50;103725.00;;;;5046369;28;20128;-64
2022/03/18 05:31:46;;;;;;;5.18;1.98;;;16.40;41.90;15.50;103719.00;;;;5059463;28;20036;-63
2022/03/18 05:34:32;;;;;;;4.38;1.90;;;16.40;42.30;15.50;103727.00;;;;5061246;28;20040;-64
2022/03/18 05:37:18;;;;;;;3.55;1.70;;;16.40;41.90;15.50;103731.00;;;;5063711;28;20101;-64
2022/03/18 05:40:05;;;;;;;2.70;1.73;;;16.40;41.90;15.50;103735.00;;;;5067598;28;20402;-64
2022/03/18 05:42:51;;;;;;;2.58;1.67;;;16.40;41.90;15.50;103744.00;;;;5043320;28;20111;-64
2022/03/18 05:45:37;;;;;;;3.33;2.05;;;16.30;41.90;15.50;103751.00;;;;5067647;28;20050;-64
2022/03/18 05:48:23;;;;;;;4.00;1.90;;;16.30;41.80;15.50;103751.00;;;;5055399;28;20398;-64
2022/03/18 05:51:09;;;;;;;3.10;1.65;;;16.30;41.80;15.40;103760.00;;;;5066321;28;20037;-64
2022/03/18 05:53:56;;;;;;;3.88;1.92;;;16.30;41.80;15.40;103766.00;;;;5062594;28;20032;-64
2022/03/18 05:56:53;;;;;;;3.38;1.60;;;16.30;41.80;15.40;103759.00;;;;5056362;28;20047;-64
2022/03/18 05:59:39;;;;;;;3.15;1.55;;;16.30;41.80;15.40;103767.00;;;;5062795;28;20040;-64
2022/03/18 06:02:25;;;;;;;3.03;1.83;;;16.30;41.80;15.40;103770.00;;;;5059820;28;20045;-64
2022/03/18 06:05:12;;;;;;;2.47;1.60;;;16.30;41.80;15.40;103773.00;;;;5064409;28;20036;-64
2022/03/18 06:11:48;;;;;;;2.70;1.40;;;16.30;41.80;15.40;103775.00;;;;5053177;28;20559;-64
2022/03/18 06:14:09;;;;;;;2.78;1.63;;;16.30;41.70;15.40;103794.00;;;;5051793;28;20044;-64
2022/03/18 06:16:58;;;;;;;2.75;1.90;;;16.30;41.80;15.40;103795.00;;;;5056338;28;20448;-64
2022/03/18 06:19:44;;;;;;;3.33;2.10;;;16.30;41.80;15.40;103782.00;;;;5059706;28;20037;-64
2022/03/18 06:22:30;;;;;;;3.67;1.60;;;16.30;41.70;15.40;103789.00;;;;5064375;28;20052;-64
2022/03/18 06:25:16;;;;;;;3.22;1.63;;;16.30;41.70;15.40;103778.00;;;;5058031;28;20368;-64
2022/03/18 06:28:02;;;;;;;4.10;2.03;;;16.30;41.70;15.40;103789.00;;;;5048344;28;20503;-64
2022/03/18 06:30:48;;;;;;;4.78;1.98;;;16.30;41.70;15.40;103790.00;;;;5052477;28;20043;-64
2022/03/18 06:33:34;;;;;;;2.63;1.75;;;16.30;41.70;15.40;103782.00;;;;5061327;28;20035;-64
2022/03/18 06:36:20;;;;;;;2.97;2.15;;;16.30;41.70;15.40;103786.00;;;;5035369;28;20036;-65
2022/03/18 06:39:07;;;;;;;2.55;1.60;;;16.30;41.70;15.40;103787.00;;;;5053279;28;20094;-64
2022/03/18 06:41:54;;;;;;;3.92;2.10;;;16.30;41.70;15.40;103780.00;;;;5059489;28;20141;-64
2022/03/18 06:44:40;;;;;;;5.13;2.20;;;16.30;41.70;15.40;103780.00;;;;5059125;28;20037;-64
2022/03/18 06:47:27;;;;;;;3.45;1.90;;;16.30;41.60;15.40;103781.00;;;;5060152;28;20051;-64
2022/03/18 06:50:13;;;;;;;4.55;2.45;;;16.30;41.60;15.40;103787.00;;;;5052182;28;20045;-64
2022/03/18 06:52:59;;;;;;;2.88;1.83;;;16.30;41.60;15.30;103785.00;;;;5057393;28;20043;-64
2022/03/18 06:55:45;;;;;;;4.53;2.25;;;16.30;41.40;15.30;103784.00;;;;5062463;28;20039;-64
2022/03/18 06:58:32;;;;;;;3.75;2.30;;;16.30;41.40;15.30;103798.00;;;;5058993;28;20155;-64
2022/03/18 07:01:18;;;;;;;2.38;1.55;;;16.20;41.40;15.30;103806.00;;;;5061403;28;20043;-64
2022/03/18 07:04:04;;;;;;;4.93;2.28;;;16.30;41.50;15.30;103823.00;;;;5044840;28;20094;-64
2022/03/18 07:06:50;;;;;;;3.10;2.05;;;16.20;41.40;15.30;103822.00;;;;5060477;28;20487;-64
2022/03/18 07:09:37;;;;;;;2.58;1.52;;;16.20;41.40;15.30;103824.00;;;;5060694;28;20109;-64
2022/03/18 07:12:23;;;;;;;2.70;1.83;;;16.30;41.50;15.30;103824.00;;;;5055017;28;20041;-64
2022/03/18 07:15:09;;;;;;;6.03;2.10;;;16.30;41.50;15.30;103830.00;;;;5056840;28;20090;-64
2022/03/18 07:17:55;;;;;;;2.55;1.80;;;16.20;41.50;15.30;103821.00;;;;5063202;28;20044;-64
2022/03/18 07:20:41;;;;;;;2.15;1.70;;;16.30;41.50;15.30;103830.00;;;;5054600;28;20044;-64
2022/03/18 07:23:27;;;;;;;3.80;1.92;;;16.20;41.50;15.30;103836.00;;;;5055435;28;20040;-64
2022/03/18 07:26:13;;;;;;;3.50;1.95;;;16.20;41.60;15.30;103831.00;;;;5051467;28;20414;-64
2022/03/18 07:29:04;;;;;;;3.97;1.90;;;16.30;41.60;15.30;103840.00;;;;5053627;28;20040;-63
2022/03/18 07:31:54;;;;;;;2.40;1.55;;;16.30;41.60;15.30;103832.00;;;;5048450;28;20045;-63
2022/03/18 07:34:40;;;;;;;3.25;1.80;;;16.30;41.60;15.30;103830.00;;;;5052657;28;20060;-64
2022/03/18 07:37:27;;;;;;;3.00;1.80;;;16.30;41.60;15.30;103840.00;;;;5056782;28;20033;-64
2022/03/18 07:40:14;;;;;;;6.15;1.98;;;16.30;41.60;15.40;103834.00;;;;5054739;28;20279;-64
2022/03/18 07:43:00;;;;;;;4.50;1.93;;;16.30;41.60;15.40;103850.00;;;;5029141;28;20056;-64
2022/03/18 07:45:46;;;;;;;4.45;1.95;;;16.30;41.60;15.40;103852.00;;;;5059368;28;20510;-64
2022/03/18 07:48:33;;;;;;;2.97;1.90;;;16.30;41.60;15.40;103845.00;;;;5051674;28;20061;-64
2022/03/18 07:51:19;;;;;;;3.20;1.90;;;16.30;41.70;15.40;103852.00;;;;5055747;28;20436;-64
2022/03/18 07:54:05;;;;;;;4.07;2.00;;;16.30;41.60;15.40;103859.00;;;;5053377;28;20043;-64
2022/03/18 07:56:51;;;;;;;4.85;2.42;;;16.40;41.70;15.40;103853.00;;;;5056010;28;20033;-64
2022/03/18 07:59:37;;;;;;;3.97;2.17;;;16.40;41.70;15.40;103859.00;;;;5056265;28;20114;-64
2022/03/18 08:02:23;;;;;;;3.50;1.90;;;16.40;41.70;15.40;103858.00;;;;5054733;28;20478;-64
2022/03/18 08:05:10;;;;;;;2.63;1.73;;;16.40;42.40;15.50;103864.00;;;;5055625;28;20044;-64
2022/03/18 08:07:57;;;;;;;3.83;2.40;;;16.40;41.70;15.50;103867.00;;;;5054520;28;20122;-64
2022/03/18 08:10:43;;;;;;;3.45;2.10;;;16.40;41.80;15.50;103873.00;;;;5042820;28;20770;-64
2022/03/18 08:13:29;;;;;;;3.65;1.92;;;16.40;41.70;15.50;103885.00;;;;5043621;28;20041;-64
2022/03/18 08:16:15;;;;;;;2.72;1.80;;;16.50;41.80;15.50;103887.00;;;;5036925;28;20041;-64
2022/03/18 08:19:01;;;;;;;4.82;2.20;;;16.50;41.80;15.50;103889.00;;;;5033381;28;20044;-64
2022/03/18 08:21:47;;;;;;;4.80;2.22;;;16.50;41.80;15.50;103894.00;;;;5062273;28;20040;-64
2022/03/18 08:24:33;;;;;;;3.75;2.08;;;16.50;41.80;15.50;103899.00;;;;5057044;28;20436;-64
2022/03/18 08:27:20;;;;;;;6.80;2.08;;;16.50;41.80;15.50;103909.00;;;;5063458;28;20459;-64
2022/03/18 08:30:07;;;;;;;3.92;1.92;;;16.50;41.80;15.50;103901.00;;;;5061475;28;20175;-64
2022/03/18 08:32:53;;;;;;;2.70;1.70;;;16.50;41.90;15.50;103903.00;;;;5061416;28;20091;-64
2022/03/18 08:35:41;;;;;;;4.20;2.17;;;16.50;41.90;15.50;103902.00;;;;5067971;28;20492;-64
2022/03/18 08:38:27;;;;;;;4.72;2.17;;;16.60;41.90;15.50;103913.00;;;;5059802;28;20095;-64
2022/03/18 08:41:13;;;;;;;5.53;2.25;;;16.60;42.00;15.60;103914.00;;;;5061617;28;20044;-64
2022/03/18 08:44:00;;;;;;;5.03;2.05;;;16.60;42.00;15.60;103917.00;;;;5054983;28;20051;-64
2022/03/18 08:46:46;;;;;;;5.50;2.38;;;16.70;42.00;15.60;103929.00;;;;5058067;28;20052;-64
2022/03/18 08:49:32;;;;;;;4.47;2.05;;;16.60;42.00;15.60;103940.00;;;;5056398;28;20122;-64
2022/03/18 08:52:19;;;;;;;6.05;2.15;;;16.60;42.00;15.60;103933.00;;;;5056380;28;20036;-64
2022/03/18 08:55:07;;;;;;;3.33;2.10;;;16.70;42.00;15.60;103943.00;;;;5048847;28;20127;-64
2022/03/18 08:57:53;;;;;;;;;;;16.70;42.10;15.60;103949.00;;;;5062058;28;20387;-64
2022/03/18 09:00:39;;;;;;;6.88;1.65;;;16.70;42.10;15.60;103955.00;;;;5078715;28;19919;-64
2022/03/18 09:03:25;;;;;;;3.85;1.80;;;16.80;42.00;15.60;103952.00;;;;5080415;28;20037;-64
2022/03/18 09:06:11;;;;;;;4.38;1.92;;;16.70;42.00;15.60;103953.00;;;;5077905;28;20048;-64
2022/03/18 09:09:02;;;;;;;2.85;1.90;;;16.70;42.00;15.60;103962.00;;;;5077766;28;20040;-64
2022/03/18 09:11:48;;;;;;;4.55;2.33;;;16.70;42.10;15.70;103963.00;;;;5059398;28;20474;-64
2022/03/18 09:14:34;;;;;;;4.30;2.00;;;16.80;42.10;15.70;103969.00;;;;5075967;28;20248;-64
2022/03/18 09:17:21;;;;;;;6.68;1.70;;;16.80;42.10;15.70;103979.00;;;;5078384;28;20459;-64
2022/03/18 09:20:07;;;;;;;3.42;1.73;;;16.80;42.10;15.70;103976.00;;;;5073040;28;20076;-64
2022/03/18 09:22:53;;;;;;;4.68;2.38;;;16.80;42.10;15.70;103966.00;;;;5079785;28;20479;-64
2022/03/18 09:25:39;;;;;;;3.72;1.60;;;16.80;42.10;15.70;103976.00;;;;5078859;28;20089;-64
2022/03/18 09:28:25;;;;;;;6.15;1.60;;;16.80;42.10;15.70;103973.00;;;;5080921;28;20513;-64
2022/03/18 09:31:12;;;;;;;3.67;1.70;;;16.80;42.10;15.70;103990.00;;;;5077124;28;20039;-64
2022/03/18 09:33:58;;;;;;;3.47;1.42;;;16.80;42.10;15.80;103979.00;;;;5075304;28;20036;-64
2022/03/18 09:36:44;;;;;;;3.80;1.55;;;16.80;42.20;15.70;103979.00;;;;5077510;28;20040;-64
2022/03/18 09:39:30;;;;;;;2.72;1.50;;;16.80;42.10;15.80;103990.00;;;;5079116;28;20081;-64
2022/03/18 09:42:16;;;;;;;3.45;1.25;;;16.90;42.20;15.80;103990.00;;;;5067980;28;20327;-64
2022/03/18 09:45:02;;;;;;;2.90;1.40;;;16.90;42.20;15.80;103989.00;;;;5083229;28;20039;-64
2022/03/18 09:47:48;;;;;;;4.35;1.75;;;16.90;42.20;15.80;103996.00;;;;5073071;28;20478;-64
2022/03/18 09:50:35;;;;;;;4.47;1.58;;;16.90;42.10;15.80;103989.00;;;;5064970;28;20036;-64
2022/03/18 09:53:21;;;;;;;4.93;1.40;;;16.90;42.10;15.80;103996.00;;;;5058597;28;20040;-64
2022/03/18 09:56:07;;;;;;;5.15;1.27;;;16.90;42.10;15.80;103999.00;;;;5066523;28;20047;-64
2022/03/18 09:58:53;;;;;;;4.13;1.63;;;16.90;42.10;15.80;103992.00;;;;5078290;28;20198;-64
2022/03/18 10:01:39;;;;;;;2.97;1.50;;;16.90;42.10;15.80;103999.00;;;;5072963;28;20066;-64
2022/03/18 10:04:25;;;;;;;1.58;1.10;;;16.90;42.10;15.80;104008.00;;;;5058359;28;20040;-64
2022/03/18 10:07:12;;;;;;;4.80;1.52;;;16.90;42.10;15.80;104002.00;;;;5082733;28;20044;-64
2022/03/18 10:10:05;;;;;;;3.80;1.30;;;17.00;42.20;15.80;104004.00;;;;5077714;28;20037;-64
2022/03/18 10:12:54;;;;;;;4.75;1.50;;;17.00;42.20;15.90;104007.00;;;;5064194;28;20116;-64
2022/03/18 10:15:40;;;;;;;4.10;1.52;;;17.00;42.10;15.90;104010.00;;;;5075644;28;20036;-64
2022/03/18 10:18:26;;;;;;;2.03;1.30;;;17.00;42.10;15.90;104006.00;;;;5080973;28;20040;-64
2022/03/18 10:21:12;;;;;;;4.03;1.35;;;17.00;42.10;15.90;104009.00;;;;5076991;28;20056;-64
2022/03/18 10:24:10;;;;;;;3.97;1.00;;;17.00;42.10;15.90;104009.00;;;;5079322;28;20036;-64
2022/03/18 10:27:20;;;;;;;3.47;1.08;;;17.00;42.10;15.90;104005.00;;;;5057598;28;20509;-64
2022/03/18 10:30:20;;;;;;;3.78;0.90;;;17.00;42.20;15.90;104004.00;;;;5070423;28;20064;-64
2022/03/18 10:33:06;;;;;;;3.17;1.15;;;17.00;42.10;15.90;104011.00;;;;5065491;28;20169;-64
2022/03/18 10:38:57;;;;;;;2.17;1.20;;;17.00;42.10;15.90;104004.00;;;;5070918;28;20047;-64
2022/03/18 10:41:43;;;;;;;3.53;1.48;;;17.00;42.10;15.90;104008.00;;;;5063625;28;20101;-64
2022/03/18 10:44:32;;;;;;;3.10;1.02;;;17.10;42.20;16.00;104018.00;;;;5050120;28;20040;-65
2022/03/18 10:47:34;;;;;;;2.00;0.75;;;17.10;42.20;16.00;104006.00;;;;5066063;28;20497;-64
2022/03/18 10:50:29;;;;;;;2.83;1.30;;;17.00;42.10;16.00;104014.00;;;;5053307;28;20093;-64
2022/03/18 10:53:18;;;;;;;4.63;1.40;;;17.10;42.20;16.00;104004.00;;;;5074782;28;20044;-63
2022/03/18 10:56:05;;;;;;;5.50;1.58;;;17.10;42.20;16.00;104015.00;;;;5079290;28;20408;-64
2022/03/18 10:58:51;;;;;;;1.88;1.05;;;17.10;42.20;16.00;104008.00;;;;5076299;28;20035;-64
2022/03/18 11:01:37;;;;;;;2.25;1.20;;;17.10;42.20;16.00;104011.00;;;;5066690;28;20040;-64
2022/03/18 11:04:24;;;;;;;2.33;1.00;;;17.10;42.20;16.00;104015.00;;;;5047914;28;20127;-64
2022/03/18 11:13:25;;;;;;;3.90;1.38;;;17.20;42.20;16.00;104016.00;;;;5050490;28;20110;-64
2022/03/18 11:16:13;;;;;;;6.32;1.40;;;17.20;42.20;16.00;104026.00;;;;5048220;28;20040;-64
2022/03/18 11:19:01;;;;;;;3.22;1.10;;;17.20;42.20;16.00;104020.00;;;;5063643;28;20355;-64
2022/03/18 11:21:48;;;;;;;;;;;17.20;42.30;16.00;104014.00;;;;5059372;28;20172;-64
2022/03/18 11:24:36;;;;;;;3.90;1.15;;;17.30;42.40;16.10;104010.00;;;;5063195;28;20006;-64
2022/03/18 11:27:22;;;;;;;2.70;1.00;;;17.20;42.20;16.00;104007.00;;;;5045918;28;20076;-64
2022/03/18 11:30:26;;;;;;;3.67;1.05;;;17.30;42.30;16.10;104006.00;;;;5045633;28;20566;-64
2022/03/18 11:33:19;;;;;;;3.05;1.15;;;17.20;42.30;16.10;104007.00;;;;5035891;28;20033;-64
2022/03/18 11:36:14;;;;;;;2.28;0.93;;;17.30;42.40;16.10;104003.00;;;;5059479;28;20028;-64
2022/03/18 11:39:03;;;;;;;3.35;1.20;;;17.30;42.30;16.10;104003.00;;;;5074197;28;20051;-64
2022/03/18 11:42:10;;;;;;;2.50;0.90;;;17.30;42.30;16.10;104004.00;;;;5062913;28;20062;-64
2022/03/18 11:44:58;;;;;;;2.38;0.98;;;17.30;42.30;16.10;104001.00;;;;5035656;28;20394;-64
2022/03/18 11:47:44;;;;;;;3.13;0.98;;;17.30;42.30;16.10;104003.00;;;;5057710;28;20036;-64
2022/03/18 11:50:42;;;;;;;3.35;0.90;;;17.30;42.30;16.10;103998.00;;;;5057341;28;20497;-64
2022/03/18 11:53:48;;;;;;;3.87;0.90;;;17.30;42.30;16.20;103998.00;;;;5077343;28;20458;-64
2022/03/18 11:56:53;;;;;;;2.58;1.00;;;17.30;42.20;16.10;103997.00;;;;5071603;28;20042;-64
2022/03/18 11:59:43;;;;;;;2.92;0.88;;;17.30;42.10;16.20;103995.00;;;;5065270;28;20062;-64
2022/03/18 12:02:36;;;;;;;4.85;1.13;;;17.30;42.10;16.20;103997.00;;;;5060963;28;20493;-64
2022/03/18 12:05:24;;;;;;;2.13;0.93;;;17.40;42.20;16.20;103992.00;;;;5047973;28;21793;-64
2022/03/18 12:08:10;;;;;;;;;;;17.30;42.10;16.20;103984.00;;;;5046519;28;20432;-64
2022/03/18 12:11:00;;;;;;;4.28;1.23;;;17.40;42.30;16.20;103976.00;;;;5092752;28;20427;-64
2022/03/18 12:13:46;;;;;;;3.80;0.93;;;17.40;42.10;16.20;103988.00;;;;5067394;28;20036;-64
2022/03/18 12:16:32;;;;;;;1.38;0.85;;;17.40;42.10;16.20;103985.00;;;;5054757;28;20043;-64
2022/03/18 12:19:18;;;;;;;1.98;0.88;;;17.40;42.10;16.20;103988.00;;;;5045838;28;20482;-64
2022/03/18 12:22:05;;;;;;;2.55;0.93;;;17.40;42.10;16.30;103989.00;;;;5060294;28;20094;-64
2022/03/18 12:24:53;;;;;;;2.75;1.10;;;17.50;42.20;16.20;103990.00;;;;5044469;28;20072;-64
2022/03/18 12:27:41;;;;;;;2.28;1.20;;;17.40;42.30;16.30;103996.00;;;;5052513;28;20505;-64
2022/03/18 12:30:28;;;;;;;4.78;1.15;;;17.40;42.30;16.30;103996.00;;;;5061510;28;20623;-64
2022/03/18 12:33:14;;;;;;;2.67;1.27;;;17.40;42.30;16.30;103989.00;;;;5053816;28;20037;-64
2022/03/18 12:36:00;;;;;;;3.45;0.98;;;17.50;42.40;16.30;103984.00;;;;5038366;28;20594;-64